createdAt,value
2019-01-23T00:00:36.969Z,74.51
2019-01-23T00:03:06.135Z,74.68
2019-01-23T00:05:35.204Z,75.33
2019-01-23T00:08:04.325Z,75.18
2019-01-23T00:10:33.433Z,75.74
2019-01-23T00:13:03.506Z,75.44
2019-01-23T00:15:31.600Z,75.31
2019-01-23T00:18:00.692Z,75.18
2019-01-23T00:20:29.777Z,75.76
2019-01-23T00:22:58.840Z,75.59
2019-01-23T00:25:27.994Z,75.28
2019-01-23T00:27:57.082Z,75.11
2019-01-23T00:30:26.158Z,75.44
2019-01-23T00:32:55.295Z,75.43
2019-01-23T00:35:24.357Z,76.08
2019-01-23T00:37:53.443Z,76.40
2019-01-23T00:40:22.539Z,76.01
2019-01-23T00:42:51.650Z,76.18
2019-01-23T00:45:39.415Z,77.07
2019-01-23T00:48:08.477Z,76.63
2019-01-23T00:50:37.537Z,76.32
2019-01-23T00:53:06.633Z,76.73
2019-01-23T00:55:35.791Z,78.54
2019-01-23T00:58:04.854Z,78.66
2019-01-23T01:00:33.948Z,78.16
2019-01-23T01:03:03.028Z,77.77
2019-01-23T01:05:32.100Z,77.17
2019-01-23T01:08:01.226Z,76.87
2019-01-23T01:10:30.293Z,77.98
2019-01-23T01:12:59.369Z,78.22
2019-01-23T01:15:29.462Z,79.33
2019-01-23T01:17:58.529Z,78.75
2019-01-23T01:20:27.595Z,79.27
2019-01-23T01:22:56.693Z,79.35
2019-01-23T01:25:25.766Z,78.63
2019-01-23T01:27:54.829Z,78.77
2019-01-23T01:30:23.957Z,78.28
2019-01-23T01:32:53.045Z,78.06
2019-01-23T01:35:22.106Z,77.87
2019-01-23T01:37:51.202Z,77.54
2019-01-23T01:40:20.264Z,77.45
2019-01-23T01:42:49.332Z,77.35
2019-01-23T01:45:38.982Z,77.17
2019-01-23T01:48:08.054Z,76.94
2019-01-23T01:50:37.116Z,76.89
2019-01-23T01:53:06.243Z,76.76
2019-01-23T01:55:35.320Z,77.37
2019-01-23T01:58:05.221Z,76.79
2019-01-23T02:00:34.397Z,76.64
2019-01-23T02:03:03.465Z,76.50
2019-01-23T02:05:32.561Z,77.22
2019-01-23T02:08:01.653Z,76.92
2019-01-23T02:10:30.725Z,76.77
2019-01-23T02:12:59.803Z,76.71
2019-01-23T02:15:30.893Z,76.63
2019-01-23T02:17:59.973Z,76.53
2019-01-23T02:20:29.049Z,77.29
2019-01-23T02:22:58.157Z,76.88
2019-01-23T02:25:30.508Z,76.64
2019-01-23T02:27:59.673Z,76.52
2019-01-23T02:30:28.750Z,76.41
2019-01-23T02:32:57.821Z,76.26
2019-01-23T02:35:37.114Z,76.25
2019-01-23T02:38:06.170Z,76.12
2019-01-23T02:40:35.232Z,76.28
2019-01-23T02:43:04.376Z,76.16
2019-01-23T02:45:46.625Z,76.32
2019-01-23T02:48:15.724Z,76.32
2019-01-23T02:50:44.793Z,76.26
2019-01-23T02:53:13.856Z,76.21
2019-01-23T02:55:42.960Z,75.96
2019-01-23T02:58:12.037Z,75.87
2019-01-23T03:00:41.100Z,75.82
2019-01-23T03:03:10.286Z,75.74
2019-01-23T03:05:42.864Z,75.70
2019-01-23T03:08:11.964Z,75.61
2019-01-23T03:10:41.078Z,75.53
2019-01-23T03:13:10.149Z,75.46
2019-01-23T03:15:40.202Z,75.36
2019-01-23T03:18:09.261Z,75.39
2019-01-23T03:20:38.342Z,75.45
2019-01-23T03:23:07.485Z,75.40
2019-01-23T03:25:36.563Z,75.32
2019-01-23T03:28:05.628Z,75.26
2019-01-23T03:30:34.731Z,75.10
2019-01-23T03:33:03.807Z,75.28
2019-01-23T03:35:42.548Z,75.25
2019-01-23T03:38:11.613Z,75.25
2019-01-23T03:40:40.689Z,75.05
2019-01-23T03:43:09.784Z,75.03
2019-01-23T03:45:38.849Z,74.99
2019-01-23T03:48:07.906Z,74.92
2019-01-23T03:50:37.041Z,74.99
2019-01-23T03:53:06.108Z,75.00
2019-01-23T03:55:35.190Z,75.03
2019-01-23T03:58:04.280Z,75.26
2019-01-23T04:00:34.128Z,75.69
2019-01-23T04:03:03.203Z,75.35
2019-01-23T04:05:45.962Z,75.24
2019-01-23T04:08:15.032Z,75.25
2019-01-23T04:10:44.114Z,75.20
2019-01-23T04:13:13.213Z,75.10
2019-01-23T04:15:42.287Z,75.05
2019-01-23T04:18:11.364Z,74.94
2019-01-23T04:20:40.589Z,74.95
2019-01-23T04:23:09.670Z,75.05
2019-01-23T04:25:38.733Z,75.05
2019-01-23T04:28:07.818Z,75.26
2019-01-23T04:30:36.917Z,75.19
2019-01-23T04:33:05.977Z,75.08
2019-01-23T04:35:35.074Z,74.98
2019-01-23T04:38:04.148Z,74.87
2019-01-23T04:40:33.222Z,74.77
2019-01-23T04:43:02.464Z,74.72
2019-01-23T04:45:34.753Z,74.65
2019-01-23T04:48:03.850Z,74.59
2019-01-23T04:50:32.942Z,74.59
2019-01-23T04:53:03.828Z,74.58
2019-01-23T04:55:32.916Z,74.59
2019-01-23T04:58:02.001Z,74.50
2019-01-23T05:00:31.058Z,74.50
2019-01-23T05:03:00.185Z,74.58
2019-01-23T05:05:45.523Z,74.62
2019-01-23T05:08:14.618Z,74.77
2019-01-23T05:10:43.693Z,75.51
2019-01-23T05:13:12.756Z,75.56
2019-01-23T05:15:41.859Z,76.66
2019-01-23T05:18:10.924Z,76.12
2019-01-23T05:20:40.002Z,76.35
2019-01-23T05:23:09.111Z,75.94
2019-01-23T05:25:54.977Z,75.89
2019-01-23T05:28:24.063Z,75.64
2019-01-23T05:30:53.144Z,75.44
2019-01-23T05:33:22.196Z,75.22
2019-01-23T05:35:51.314Z,75.09
2019-01-23T05:38:20.388Z,74.96
2019-01-23T05:40:49.451Z,74.94
2019-01-23T05:43:18.571Z,74.91
2019-01-23T05:45:47.642Z,74.84
2019-01-23T05:48:16.707Z,74.70
2019-01-23T05:50:45.805Z,74.70
2019-01-23T05:53:14.885Z,74.68
2019-01-23T05:55:43.958Z,74.69
2019-01-23T05:58:13.065Z,74.74
2019-01-23T06:00:42.125Z,74.69
2019-01-23T06:03:11.348Z,74.69
2019-01-23T06:05:40.526Z,74.68
2019-01-23T06:08:09.610Z,74.79
2019-01-23T06:10:38.673Z,74.77
2019-01-23T06:13:07.768Z,74.74
2019-01-23T06:15:36.859Z,74.70
2019-01-23T06:18:05.935Z,74.65
2019-01-23T06:20:35.042Z,74.60
2019-01-23T06:23:04.108Z,74.62
2019-01-23T06:25:41.190Z,74.70
2019-01-23T06:28:10.246Z,74.64
2019-01-23T06:30:39.318Z,74.59
2019-01-23T06:33:08.424Z,74.59
2019-01-23T06:35:37.507Z,74.57
2019-01-23T06:38:06.579Z,74.68
2019-01-23T06:40:35.684Z,74.73
2019-01-23T06:43:04.761Z,74.87
2019-01-23T06:45:35.795Z,74.80
2019-01-23T06:48:04.947Z,74.93
2019-01-23T06:50:34.025Z,74.91
2019-01-23T06:53:03.097Z,74.84
2019-01-23T06:55:32.627Z,74.92
2019-01-23T06:58:01.689Z,75.01
2019-01-23T07:00:30.769Z,75.13
2019-01-23T07:02:59.857Z,75.19
2019-01-23T07:05:35.905Z,75.20
2019-01-23T07:08:05.026Z,75.28
2019-01-23T07:10:34.115Z,75.20
2019-01-23T07:13:03.201Z,75.12
2019-01-23T07:15:32.302Z,75.05
2019-01-23T07:18:01.382Z,75.03
2019-01-23T07:20:30.461Z,75.03
2019-01-23T07:22:59.577Z,75.23
2019-01-23T07:25:31.817Z,75.48
2019-01-23T07:28:00.948Z,75.37
2019-01-23T07:30:30.020Z,75.37
2019-01-23T07:32:59.100Z,75.43
2019-01-23T07:35:28.205Z,75.51
2019-01-23T07:37:57.303Z,75.56
2019-01-23T07:40:26.418Z,75.60
2019-01-23T07:42:55.521Z,75.66
2019-01-23T07:45:24.595Z,75.73
2019-01-23T07:47:53.671Z,75.77
2019-01-23T07:50:22.974Z,75.34
2019-01-23T07:52:52.060Z,75.33
2019-01-23T07:55:21.149Z,75.22
2019-01-23T07:57:50.259Z,75.30
2019-01-23T08:00:21.294Z,75.52
2019-01-23T08:02:50.379Z,75.45
2019-01-23T08:05:19.816Z,75.33
2019-01-23T08:07:49.484Z,75.33
2019-01-23T08:10:18.634Z,75.59
2019-01-23T08:12:47.756Z,75.92
2019-01-23T08:15:20.760Z,76.08
2019-01-23T08:17:49.874Z,76.19
2019-01-23T08:20:19.790Z,76.06
2019-01-23T08:22:48.860Z,76.15
2019-01-23T08:25:23.615Z,76.01
2019-01-23T08:27:52.684Z,75.91
2019-01-23T08:30:21.752Z,75.98
2019-01-23T08:32:50.880Z,75.71
2019-01-23T08:35:19.972Z,75.36
2019-01-23T08:37:49.053Z,75.09
2019-01-23T08:40:18.198Z,75.09
2019-01-23T08:42:47.275Z,75.10
2019-01-23T08:45:16.347Z,75.06
2019-01-23T08:47:45.450Z,74.84
2019-01-23T08:50:19.212Z,74.79
2019-01-23T08:52:48.358Z,74.49
2019-01-23T08:55:19.418Z,74.51
2019-01-23T08:57:48.535Z,74.41
2019-01-23T09:00:17.637Z,74.41
2019-01-23T09:02:46.738Z,74.15
2019-01-23T09:05:15.834Z,74.08
2019-01-23T09:07:44.917Z,73.88
2019-01-23T09:10:14.811Z,73.93
2019-01-23T09:12:43.939Z,73.62
2019-01-23T09:15:13.017Z,74.18
2019-01-23T09:17:42.102Z,74.42
2019-01-23T09:20:11.211Z,74.30
2019-01-23T09:22:40.284Z,74.35
2019-01-23T09:25:09.426Z,74.05
2019-01-23T09:27:38.536Z,74.01
2019-01-23T09:30:08.422Z,73.09
2019-01-23T09:32:47.127Z,72.89
2019-01-23T09:38:11.040Z,72.93
2019-01-23T09:40:40.131Z,73.06
2019-01-23T09:43:10.174Z,73.11
2019-01-23T09:49:04.040Z,73.18
2019-01-23T09:51:39.654Z,73.34
2019-01-23T09:54:08.732Z,73.37
2019-01-23T09:56:37.905Z,73.13
2019-01-23T09:59:07.095Z,73.18
2019-01-23T10:01:36.174Z,72.97
2019-01-23T10:04:05.248Z,72.77
2019-01-23T10:06:34.358Z,72.49
2019-01-23T10:09:03.434Z,72.28
2019-01-23T10:11:32.502Z,72.15
2019-01-23T10:14:01.639Z,72.02
2019-01-23T10:16:30.706Z,71.89
2019-01-23T10:18:59.780Z,71.58
2019-01-23T10:21:28.872Z,71.19
2019-01-23T10:23:57.962Z,71.51
2019-01-23T10:26:27.035Z,71.49
2019-01-23T10:28:56.123Z,71.17
2019-01-23T10:31:25.245Z,71.04
2019-01-23T10:33:54.332Z,70.89
2019-01-23T10:36:23.460Z,70.85
2019-01-23T10:38:52.514Z,70.97
2019-01-23T10:41:22.048Z,70.93
2019-01-23T10:43:51.080Z,70.48
2019-01-23T10:46:20.150Z,70.81
2019-01-23T10:48:49.600Z,70.50
2019-01-23T10:51:18.653Z,70.81
2019-01-23T10:53:47.794Z,70.68
2019-01-23T11:05:32.751Z,70.08
2019-01-23T11:08:01.841Z,70.13
2019-01-23T11:10:30.905Z,69.72
2019-01-23T11:12:59.990Z,69.52
2019-01-23T11:15:29.046Z,69.56
2019-01-23T11:17:58.132Z,69.35
2019-01-23T11:20:27.270Z,68.81
2019-01-23T11:22:56.375Z,68.34
2019-01-23T11:25:25.542Z,68.00
2019-01-23T11:27:54.645Z,67.82
2019-01-23T11:30:24.643Z,66.94
2019-01-23T11:32:53.738Z,67.79
2019-01-23T11:35:22.905Z,67.75
2019-01-23T11:37:52.019Z,67.56
2019-01-23T11:40:22.057Z,67.32
2019-01-23T11:42:51.300Z,67.29
2019-01-23T11:45:20.466Z,67.31
2019-01-23T11:47:49.541Z,67.38
2019-01-23T11:50:21.994Z,66.91
2019-01-23T11:52:47.783Z,66.33
2019-01-23T11:55:16.874Z,65.79
2019-01-23T11:57:46.009Z,66.38
2019-01-23T12:00:16.656Z,66.47
2019-01-23T12:02:45.665Z,66.38
2019-01-23T12:05:14.765Z,66.23
2019-01-23T12:07:43.872Z,65.36
2019-01-23T12:10:13.914Z,64.99
2019-01-23T12:12:43.910Z,64.14
2019-01-23T12:15:26.339Z,63.43
2019-01-23T12:17:55.460Z,62.73
2019-01-23T12:20:24.565Z,62.63
2019-01-23T12:22:53.651Z,62.37
2019-01-23T12:25:22.753Z,62.13
2019-01-23T12:27:51.826Z,60.07
2019-01-23T12:30:20.896Z,60.77
2019-01-23T12:32:50.125Z,60.48
2019-01-23T12:35:19.192Z,59.88
2019-01-23T12:37:48.296Z,60.16
2019-01-23T12:40:17.490Z,59.88
2019-01-23T12:42:46.660Z,58.85
2019-01-23T12:45:15.821Z,59.09
2019-01-23T12:47:44.955Z,59.13
2019-01-23T12:50:14.060Z,59.11
2019-01-23T12:52:43.220Z,58.66
2019-01-23T12:55:12.438Z,58.74
2019-01-23T12:57:41.514Z,59.07
2019-01-23T13:00:10.618Z,59.88
2019-01-23T13:02:39.763Z,60.25
2019-01-23T13:05:08.906Z,60.32
2019-01-23T13:07:37.993Z,60.38
2019-01-23T13:10:07.108Z,60.25
2019-01-23T13:12:36.210Z,60.22
2019-01-23T13:15:06.205Z,60.21
2019-01-23T13:17:35.332Z,60.11
2019-01-23T13:20:04.409Z,60.07
2019-01-23T13:22:33.725Z,60.08
2019-01-23T13:25:02.554Z,60.23
2019-01-23T13:27:31.629Z,60.39
2019-01-23T13:30:00.692Z,60.45
2019-01-23T13:32:29.818Z,60.61
2019-01-23T13:34:58.884Z,60.48
2019-01-23T13:37:27.948Z,60.84
2019-01-23T13:40:19.402Z,60.78
2019-01-23T13:42:48.459Z,60.93
2019-01-23T13:45:17.544Z,61.10
2019-01-23T13:47:46.615Z,61.37
2019-01-23T13:50:15.675Z,61.26
2019-01-23T13:52:44.761Z,61.47
2019-01-23T13:55:36.564Z,61.69
2019-01-23T13:58:06.569Z,61.72
2019-01-23T14:00:35.653Z,61.88
2019-01-23T14:03:04.709Z,61.83
2019-01-23T14:05:33.803Z,61.84
2019-01-23T14:08:02.867Z,61.93
2019-01-23T14:10:31.946Z,61.88
2019-01-23T14:13:01.037Z,61.68
2019-01-23T14:15:30.882Z,61.67
2019-01-23T14:17:59.944Z,61.89
2019-01-23T14:20:29.072Z,62.09
2019-01-23T14:22:58.128Z,62.16
2019-01-23T14:25:43.871Z,62.18
2019-01-23T14:28:12.941Z,62.14
2019-01-23T14:30:41.989Z,62.07
2019-01-23T14:33:11.080Z,62.17
2019-01-23T14:35:40.156Z,62.33
2019-01-23T14:38:09.257Z,62.53
2019-01-23T14:40:38.404Z,62.73
2019-01-23T14:43:08.464Z,62.97
2019-01-23T14:45:38.690Z,63.15
2019-01-23T14:48:07.789Z,63.34
2019-01-23T14:50:36.861Z,63.46
2019-01-23T14:53:05.961Z,63.68
2019-01-23T14:55:35.045Z,63.88
2019-01-23T14:58:04.123Z,64.07
2019-01-23T15:00:33.636Z,64.35
2019-01-23T15:03:02.691Z,64.65
2019-01-23T15:05:31.744Z,64.92
2019-01-23T15:08:00.840Z,65.36
2019-01-23T15:10:30.798Z,65.57
2019-01-23T15:12:59.852Z,65.99
2019-01-23T15:15:29.976Z,66.24
2019-01-23T15:17:59.049Z,66.34
2019-01-23T15:20:31.735Z,66.62
2019-01-23T15:23:00.788Z,66.86
2019-01-23T15:25:53.359Z,67.20
2019-01-23T15:28:22.432Z,67.35
2019-01-23T15:30:51.522Z,67.46
2019-01-23T15:33:20.599Z,67.57
2019-01-23T15:35:49.689Z,67.66
2019-01-23T15:38:18.819Z,67.84
2019-01-23T15:40:47.904Z,67.78
2019-01-23T15:43:16.975Z,67.95
2019-01-23T15:45:46.092Z,68.14
2019-01-23T15:48:15.165Z,68.49
2019-01-23T15:50:44.234Z,68.72
2019-01-23T15:53:13.352Z,68.83
2019-01-23T15:55:54.157Z,69.01
2019-01-23T15:58:23.269Z,69.05
2019-01-23T16:00:52.347Z,69.04
2019-01-23T16:03:21.409Z,69.26
2019-01-23T16:05:50.527Z,69.34
2019-01-23T16:08:19.594Z,69.31
2019-01-23T16:10:48.678Z,69.58
2019-01-23T16:13:17.816Z,69.56
2019-01-23T16:15:46.857Z,69.67
2019-01-23T16:18:17.107Z,69.77
2019-01-23T16:20:46.235Z,69.89
2019-01-23T16:23:15.305Z,70.19
2019-01-23T16:26:04.024Z,70.05
2019-01-23T16:28:33.100Z,70.13
2019-01-23T16:31:02.192Z,70.13
2019-01-23T16:33:31.297Z,70.29
2019-01-23T16:36:00.402Z,70.34
2019-01-23T16:38:29.466Z,70.49
2019-01-23T16:40:58.608Z,70.57
2019-01-23T16:43:27.688Z,70.64
2019-01-23T16:46:01.794Z,70.72
2019-01-23T16:48:30.823Z,70.83
2019-01-23T16:50:59.912Z,70.88
2019-01-23T16:53:29.020Z,70.92
2019-01-23T16:55:58.093Z,71.09
2019-01-23T16:58:27.181Z,71.14
2019-01-23T17:00:56.301Z,71.21
2019-01-23T17:03:25.366Z,71.42
2019-01-23T17:05:54.446Z,71.47
2019-01-23T17:08:23.582Z,71.61
2019-01-23T17:10:52.670Z,71.68
2019-01-23T17:13:21.786Z,71.84
2019-01-23T17:15:50.888Z,71.85
2019-01-23T17:18:20.973Z,71.97
2019-01-23T17:20:50.056Z,72.06
2019-01-23T17:23:19.173Z,72.12
2019-01-23T17:25:56.319Z,72.26
2019-01-23T17:28:25.433Z,72.34
2019-01-23T17:30:54.518Z,72.38
2019-01-23T17:33:23.608Z,72.38
2019-01-23T17:35:52.722Z,72.41
2019-01-23T17:38:21.809Z,72.45
2019-01-23T17:40:50.896Z,72.58
2019-01-23T17:43:20.021Z,72.75
2019-01-23T17:48:52.739Z,73.05
2019-01-23T17:51:21.825Z,73.04
2019-01-23T17:53:50.900Z,72.93
2019-01-23T17:56:20.013Z,72.89
2019-01-23T17:58:49.085Z,72.83
2019-01-23T18:01:18.161Z,72.88
2019-01-23T18:03:47.287Z,72.97
2019-01-23T18:06:16.367Z,73.10
2019-01-23T18:08:45.445Z,73.13
2019-01-23T18:11:14.551Z,73.17
2019-01-23T18:13:43.626Z,73.17
2019-01-23T18:16:12.696Z,73.25
2019-01-23T18:18:41.910Z,73.33
2019-01-23T18:21:10.979Z,73.27
2019-01-23T18:23:40.057Z,73.29
2019-01-23T18:26:09.222Z,73.38
2019-01-23T18:28:38.295Z,73.61
2019-01-23T18:33:49.457Z,74.61
2019-01-23T18:36:23.964Z,74.32
2019-01-23T18:38:53.802Z,74.43
2019-01-23T18:41:24.918Z,74.42
2019-01-23T18:43:56.248Z,74.57
2019-01-23T18:46:29.268Z,74.52
2019-01-23T18:49:16.009Z,74.58
2019-01-23T18:51:45.109Z,74.58
2019-01-23T18:54:14.218Z,74.41
2019-01-23T18:56:43.306Z,74.48
2019-01-23T18:59:12.394Z,74.38
2019-01-23T19:01:41.470Z,74.36
2019-01-23T19:04:10.605Z,74.36
2019-01-23T19:06:39.684Z,74.33
2019-01-23T19:09:08.785Z,74.22
2019-01-23T19:11:37.898Z,74.19
2019-01-23T19:14:06.990Z,74.19
2019-01-23T19:16:36.077Z,74.16
2019-01-23T19:19:06.294Z,74.17
2019-01-23T19:21:35.397Z,73.99
2019-01-23T19:24:04.483Z,74.15
2019-01-23T19:26:33.775Z,74.14
2019-01-23T19:29:02.860Z,74.20
2019-01-23T19:31:31.938Z,74.14
2019-01-23T19:34:01.049Z,74.17
2019-01-23T19:36:30.131Z,74.15
2019-01-23T19:38:59.212Z,74.17
2019-01-23T19:41:28.318Z,74.05
2019-01-23T19:43:57.400Z,74.17
2019-01-23T19:46:38.224Z,74.18
2019-01-23T19:49:07.298Z,74.33
2019-01-23T19:51:36.353Z,74.30
2019-01-23T19:54:05.459Z,74.35
2019-01-23T19:56:34.553Z,74.38
2019-01-23T19:59:03.642Z,74.44
2019-01-23T20:01:32.748Z,74.36
2019-01-23T20:04:01.837Z,74.20
2019-01-23T20:06:30.908Z,74.24
2019-01-23T20:09:00.213Z,74.30
2019-01-23T20:11:29.292Z,74.41
2019-01-23T20:13:58.378Z,74.41
2019-01-23T20:16:27.499Z,74.43
2019-01-23T20:18:56.591Z,74.49
2019-01-23T20:21:25.689Z,74.52
2019-01-23T20:23:54.789Z,74.37
2019-01-23T20:26:32.291Z,74.40
2019-01-23T20:29:01.574Z,74.31
2019-01-23T20:31:30.661Z,74.29
2019-01-23T20:33:59.747Z,74.27
2019-01-23T20:36:28.874Z,74.29
2019-01-23T20:38:57.943Z,74.32
2019-01-23T20:41:27.021Z,74.22
2019-01-23T20:43:56.133Z,74.22
2019-01-23T20:46:25.212Z,74.31
2019-01-23T20:48:54.298Z,74.20
2019-01-23T20:51:25.970Z,74.36
2019-01-23T20:53:55.071Z,74.23
2019-01-23T20:56:24.186Z,74.21
2019-01-23T20:58:53.297Z,74.19
2019-01-23T21:01:22.398Z,74.25
2019-01-23T21:03:51.478Z,74.24
2019-01-23T21:06:20.594Z,74.18
2019-01-23T21:08:49.687Z,74.21
2019-01-23T21:11:18.767Z,74.24
2019-01-23T21:13:48.064Z,74.26
2019-01-23T21:16:17.147Z,74.13
2019-01-23T21:18:46.237Z,74.26
2019-01-23T21:21:15.332Z,74.42
2019-01-23T21:23:44.434Z,74.38
2019-01-23T21:26:13.513Z,74.71
2019-01-23T21:28:42.651Z,74.58
2019-01-23T21:31:17.748Z,74.72
2019-01-23T21:33:48.154Z,74.55
2019-01-23T21:36:17.220Z,74.62
2019-01-23T21:38:46.293Z,74.57
2019-01-23T21:41:15.392Z,74.51
2019-01-23T21:43:44.475Z,74.50
2019-01-23T21:46:21.816Z,74.46
2019-01-23T21:48:50.890Z,74.40
2019-01-23T21:51:19.965Z,74.52
2019-01-23T21:53:49.080Z,74.52
2019-01-23T21:56:18.151Z,74.51
2019-01-23T21:58:47.243Z,74.49
2019-01-23T22:01:16.396Z,74.55
2019-01-23T22:03:49.252Z,74.51
2019-01-23T22:06:15.863Z,74.50
2019-01-23T22:08:44.939Z,74.44
2019-01-23T22:11:14.026Z,74.46
2019-01-23T22:13:43.106Z,74.50
2019-01-23T22:16:12.276Z,74.45
2019-01-23T22:18:41.366Z,74.48
2019-01-23T22:21:10.450Z,74.44
2019-01-23T22:23:39.563Z,74.43
2019-01-23T22:26:08.643Z,74.43
2019-01-23T22:28:37.721Z,74.51
2019-01-23T22:31:06.827Z,74.52
2019-01-23T22:33:35.905Z,74.57
2019-01-23T22:36:05.001Z,74.55
2019-01-23T22:38:47.492Z,74.72
2019-01-23T22:41:12.826Z,74.64
2019-01-23T22:43:42.178Z,74.50
2019-01-23T22:46:11.220Z,74.52
2019-01-23T22:48:40.300Z,74.60
2019-01-23T22:51:09.406Z,74.50
2019-01-23T22:53:38.555Z,74.48
2019-01-23T22:56:12.375Z,74.55
2019-01-23T22:58:52.351Z,74.51
2019-01-23T23:01:21.305Z,74.42
2019-01-23T23:03:50.386Z,74.44
2019-01-23T23:06:19.450Z,74.38
2019-01-23T23:08:48.557Z,74.35
2019-01-23T23:11:17.651Z,74.37
2019-01-23T23:13:46.736Z,74.45
2019-01-23T23:16:15.865Z,74.42
2019-01-23T23:18:45.175Z,74.38
2019-01-23T23:21:14.207Z,74.45
2019-01-23T23:23:43.326Z,74.53
2019-01-23T23:26:12.397Z,74.52
2019-01-23T23:28:41.475Z,74.46
2019-01-23T23:31:10.580Z,74.42
2019-01-23T23:33:39.657Z,74.34
2019-01-23T23:36:08.732Z,74.37
2019-01-23T23:38:37.859Z,74.37
2019-01-23T23:41:07.107Z,74.45
2019-01-23T23:43:36.198Z,74.47
2019-01-23T23:46:22.687Z,74.52
2019-01-23T23:48:51.758Z,74.62
2019-01-23T23:51:20.843Z,74.58
2019-01-23T23:53:50.080Z,74.66
2019-01-23T23:56:19.177Z,74.53
2019-01-23T23:58:48.260Z,74.49
